Fahud, Oman
Current Conditions -  °F | °C
As of 10:52 PM on Thursday 27 Nov 2014 (Local Time) from EQMN Reporting Station
Clear Clear  
Wind Chill: 75°   Ceiling: Unl
Heat Index: 75°   Visibility: 6mi
Dew Point: 50°   Wind: 7mph
Humidity: 41%   Direction: 220°SW
Pressure: 29.94"   Gusts: NA
Location:  22.35°N, 56.48°E
Report Text: EQMN 271852Z AUTO 22006KT CAVOK 24/10 Q1014
Loading
Personal Weather Stations






























Interactive Weather Map New forecast layout! Learn more

10-Day Weather Forecast

Advertisements
Track Severe Weather on mobile